sensor_id;sensor_type;location;lat;lon;timestamp;P1;durP1;ratioP1;P2;durP2;ratioP2
32228;SDS011;18717;48.034;11.186;2023-02-04T00:00:11;6.20;;;5.90;;
32228;SDS011;18717;48.034;11.186;2023-02-04T00:02:40;6.65;;;6.15;;
32228;SDS011;18717;48.034;11.186;2023-02-04T00:05:08;6.45;;;6.15;;
32228;SDS011;18717;48.034;11.186;2023-02-04T00:07:37;6.20;;;5.90;;
32228;SDS011;18717;48.034;11.186;2023-02-04T00:10:07;6.80;;;6.50;;
32228;SDS011;18717;48.034;11.186;2023-02-04T00:12:35;6.82;;;6.53;;
32228;SDS011;18717;48.034;11.186;2023-02-04T00:15:03;7.30;;;6.90;;
32228;SDS011;18717;48.034;11.186;2023-02-04T00:17:32;6.72;;;6.32;;
32228;SDS011;18717;48.034;11.186;2023-02-04T00:20:00;6.10;;;5.90;;
32228;SDS011;18717;48.034;11.186;2023-02-04T00:22:28;6.13;;;5.82;;
32228;SDS011;18717;48.034;11.186;2023-02-04T00:24:56;6.47;;;6.13;;
32228;SDS011;18717;48.034;11.186;2023-02-04T00:27:23;5.90;;;5.70;;
32228;SDS011;18717;48.034;11.186;2023-02-04T00:29:51;6.47;;;6.18;;
32228;SDS011;18717;48.034;11.186;2023-02-04T00:32:18;6.50;;;6.20;;
32228;SDS011;18717;48.034;11.186;2023-02-04T00:34:47;6.60;;;6.30;;
32228;SDS011;18717;48.034;11.186;2023-02-04T00:37:15;6.28;;;6.00;;
32228;SDS011;18717;48.034;11.186;2023-02-04T00:39:43;6.50;;;6.15;;
32228;SDS011;18717;48.034;11.186;2023-02-04T00:42:10;6.20;;;5.90;;
32228;SDS011;18717;48.034;11.186;2023-02-04T00:44:38;6.20;;;5.90;;
32228;SDS011;18717;48.034;11.186;2023-02-04T00:47:06;6.32;;;6.03;;
32228;SDS011;18717;48.034;11.186;2023-02-04T00:49:34;6.78;;;6.47;;
32228;SDS011;18717;48.034;11.186;2023-02-04T00:52:03;6.85;;;6.47;;
32228;SDS011;18717;48.034;11.186;2023-02-04T00:54:31;5.85;;;5.65;;
32228;SDS011;18717;48.034;11.186;2023-02-04T00:56:58;6.10;;;5.80;;
32228;SDS011;18717;48.034;11.186;2023-02-04T00:59:26;6.40;;;6.10;;
32228;SDS011;18717;48.034;11.186;2023-02-04T01:01:54;6.03;;;5.72;;
32228;SDS011;18717;48.034;11.186;2023-02-04T01:04:21;6.15;;;5.85;;
32228;SDS011;18717;48.034;11.186;2023-02-04T01:06:49;6.40;;;6.10;;
32228;SDS011;18717;48.034;11.186;2023-02-04T01:09:18;5.88;;;5.57;;
32228;SDS011;18717;48.034;11.186;2023-02-04T01:11:46;6.95;;;6.50;;
32228;SDS011;18717;48.034;11.186;2023-02-04T01:14:13;6.85;;;6.45;;
32228;SDS011;18717;48.034;11.186;2023-02-04T01:16:41;6.40;;;6.10;;
32228;SDS011;18717;48.034;11.186;2023-02-04T01:19:09;6.90;;;6.50;;
32228;SDS011;18717;48.034;11.186;2023-02-04T01:21:36;6.72;;;6.32;;
32228;SDS011;18717;48.034;11.186;2023-02-04T01:24:06;6.88;;;6.43;;
32228;SDS011;18717;48.034;11.186;2023-02-04T01:26:35;6.18;;;5.88;;
32228;SDS011;18717;48.034;11.186;2023-02-04T01:29:03;6.15;;;5.85;;
32228;SDS011;18717;48.034;11.186;2023-02-04T01:31:30;6.57;;;6.28;;
32228;SDS011;18717;48.034;11.186;2023-02-04T01:33:59;7.05;;;6.63;;
32228;SDS011;18717;48.034;11.186;2023-02-04T01:36:27;7.05;;;6.63;;
32228;SDS011;18717;48.034;11.186;2023-02-04T01:38:55;7.05;;;6.65;;
32228;SDS011;18717;48.034;11.186;2023-02-04T01:41:23;6.30;;;6.00;;
32228;SDS011;18717;48.034;11.186;2023-02-04T01:43:53;7.22;;;6.50;;
32228;SDS011;18717;48.034;11.186;2023-02-04T01:46:20;7.90;;;6.85;;
32228;SDS011;18717;48.034;11.186;2023-02-04T01:48:49;7.03;;;6.63;;
32228;SDS011;18717;48.034;11.186;2023-02-04T01:51:18;7.22;;;6.72;;
32228;SDS011;18717;48.034;11.186;2023-02-04T01:53:52;7.03;;;6.43;;
32228;SDS011;18717;48.034;11.186;2023-02-04T01:56:21;6.95;;;6.65;;
32228;SDS011;18717;48.034;11.186;2023-02-04T01:58:53;6.57;;;6.27;;
32228;SDS011;18717;48.034;11.186;2023-02-04T02:01:34;7.25;;;6.85;;
32228;SDS011;18717;48.034;11.186;2023-02-04T02:04:03;6.43;;;6.13;;
32228;SDS011;18717;48.034;11.186;2023-02-04T02:06:31;6.93;;;6.53;;
32228;SDS011;18717;48.034;11.186;2023-02-04T02:08:59;7.22;;;6.93;;
32228;SDS011;18717;48.034;11.186;2023-02-04T02:11:27;7.55;;;7.05;;
32228;SDS011;18717;48.034;11.186;2023-02-04T02:13:57;7.07;;;6.68;;
32228;SDS011;18717;48.034;11.186;2023-02-04T02:16:25;7.22;;;6.82;;
32228;SDS011;18717;48.034;11.186;2023-02-04T02:18:52;7.65;;;7.15;;
32228;SDS011;18717;48.034;11.186;2023-02-04T02:21:28;7.18;;;6.78;;
32228;SDS011;18717;48.034;11.186;2023-02-04T02:23:59;7.93;;;7.35;;
32228;SDS011;18717;48.034;11.186;2023-02-04T02:26:27;7.70;;;7.20;;
32228;SDS011;18717;48.034;11.186;2023-02-04T02:28:54;8.20;;;7.65;;
32228;SDS011;18717;48.034;11.186;2023-02-04T02:31:22;7.43;;;7.00;;
32228;SDS011;18717;48.034;11.186;2023-02-04T02:33:50;7.90;;;7.10;;
32228;SDS011;18717;48.034;11.186;2023-02-04T02:36:17;7.53;;;7.03;;
32228;SDS011;18717;48.034;11.186;2023-02-04T02:38:48;7.88;;;7.38;;
32228;SDS011;18717;48.034;11.186;2023-02-04T02:41:17;8.32;;;7.82;;
32228;SDS011;18717;48.034;11.186;2023-02-04T02:43:44;7.80;;;7.05;;
32228;SDS011;18717;48.034;11.186;2023-02-04T02:46:12;8.10;;;7.45;;
32228;SDS011;18717;48.034;11.186;2023-02-04T02:48:40;8.07;;;7.47;;
32228;SDS011;18717;48.034;11.186;2023-02-04T02:51:07;8.20;;;7.55;;
32228;SDS011;18717;48.034;11.186;2023-02-04T02:53:35;6.93;;;6.63;;
32228;SDS011;18717;48.034;11.186;2023-02-04T02:56:02;6.43;;;6.13;;
32228;SDS011;18717;48.034;11.186;2023-02-04T02:58:32;7.20;;;6.28;;
32228;SDS011;18717;48.034;11.186;2023-02-04T03:01:02;5.97;;;5.78;;
32228;SDS011;18717;48.034;11.186;2023-02-04T03:03:32;7.03;;;6.55;;
32228;SDS011;18717;48.034;11.186;2023-02-04T03:06:01;6.38;;;6.07;;
32228;SDS011;18717;48.034;11.186;2023-02-04T03:08:30;6.63;;;6.32;;
32228;SDS011;18717;48.034;11.186;2023-02-04T03:10:58;6.90;;;6.60;;
32228;SDS011;18717;48.034;11.186;2023-02-04T03:13:26;6.35;;;6.05;;
32228;SDS011;18717;48.034;11.186;2023-02-04T03:15:55;6.38;;;6.07;;
32228;SDS011;18717;48.034;11.186;2023-02-04T03:18:23;6.43;;;6.00;;
32228;SDS011;18717;48.034;11.186;2023-02-04T03:20:51;6.22;;;5.93;;
32228;SDS011;18717;48.034;11.186;2023-02-04T03:23:18;6.07;;;5.88;;
32228;SDS011;18717;48.034;11.186;2023-02-04T03:25:46;6.82;;;6.53;;
32228;SDS011;18717;48.034;11.186;2023-02-04T03:28:14;6.82;;;6.53;;
32228;SDS011;18717;48.034;11.186;2023-02-04T03:30:42;5.75;;;5.55;;
32228;SDS011;18717;48.034;11.186;2023-02-04T03:33:11;7.10;;;6.60;;
32228;SDS011;18717;48.034;11.186;2023-02-04T03:35:39;6.30;;;6.00;;
32228;SDS011;18717;48.034;11.186;2023-02-04T03:38:06;6.10;;;5.80;;
32228;SDS011;18717;48.034;11.186;2023-02-04T03:40:34;6.47;;;6.28;;
32228;SDS011;18717;48.034;11.186;2023-02-04T03:43:01;5.78;;;5.57;;
32228;SDS011;18717;48.034;11.186;2023-02-04T03:45:29;6.22;;;6.03;;
32228;SDS011;18717;48.034;11.186;2023-02-04T03:48:09;5.90;;;5.70;;
32228;SDS011;18717;48.034;11.186;2023-02-04T03:50:38;6.50;;;6.20;;
32228;SDS011;18717;48.034;11.186;2023-02-04T03:53:05;5.93;;;5.72;;
32228;SDS011;18717;48.034;11.186;2023-02-04T03:55:33;6.20;;;5.90;;
32228;SDS011;18717;48.034;11.186;2023-02-04T03:58:01;6.43;;;6.03;;
32228;SDS011;18717;48.034;11.186;2023-02-04T04:00:28;6.63;;;6.30;;
32228;SDS011;18717;48.034;11.186;2023-02-04T04:02:57;6.60;;;6.20;;
32228;SDS011;18717;48.034;11.186;2023-02-04T04:05:25;8.18;;;7.43;;
32228;SDS011;18717;48.034;11.186;2023-02-04T04:07:55;7.95;;;7.45;;
32228;SDS011;18717;48.034;11.186;2023-02-04T04:10:23;12.65;;;8.00;;
32228;SDS011;18717;48.034;11.186;2023-02-04T04:12:50;8.10;;;7.40;;
32228;SDS011;18717;48.034;11.186;2023-02-04T04:15:18;8.23;;;7.40;;
32228;SDS011;18717;48.034;11.186;2023-02-04T04:17:45;8.80;;;7.63;;
32228;SDS011;18717;48.034;11.186;2023-02-04T04:20:13;10.40;;;7.78;;
32228;SDS011;18717;48.034;11.186;2023-02-04T04:22:41;11.48;;;8.40;;
32228;SDS011;18717;48.034;11.186;2023-02-04T04:25:12;12.20;;;8.23;;
32228;SDS011;18717;48.034;11.186;2023-02-04T04:27:39;17.25;;;9.50;;
32228;SDS011;18717;48.034;11.186;2023-02-04T04:30:07;8.65;;;7.85;;
32228;SDS011;18717;48.034;11.186;2023-02-04T04:32:36;9.35;;;7.65;;
32228;SDS011;18717;48.034;11.186;2023-02-04T04:35:04;13.10;;;8.43;;
32228;SDS011;18717;48.034;11.186;2023-02-04T04:37:32;11.95;;;7.95;;
32228;SDS011;18717;48.034;11.186;2023-02-04T04:40:00;12.40;;;8.65;;
32228;SDS011;18717;48.034;11.186;2023-02-04T04:42:29;18.65;;;9.57;;
32228;SDS011;18717;48.034;11.186;2023-02-04T04:44:57;10.63;;;8.27;;
32228;SDS011;18717;48.034;11.186;2023-02-04T04:47:24;12.88;;;7.63;;
32228;SDS011;18717;48.034;11.186;2023-02-04T04:49:52;15.75;;;8.55;;
32228;SDS011;18717;48.034;11.186;2023-02-04T04:52:20;13.98;;;7.97;;
32228;SDS011;18717;48.034;11.186;2023-02-04T04:54:47;9.43;;;7.90;;
32228;SDS011;18717;48.034;11.186;2023-02-04T04:57:15;13.65;;;8.15;;
32228;SDS011;18717;48.034;11.186;2023-02-04T04:59:44;10.02;;;7.90;;
32228;SDS011;18717;48.034;11.186;2023-02-04T05:02:11;9.13;;;8.02;;
32228;SDS011;18717;48.034;11.186;2023-02-04T05:04:39;13.10;;;8.05;;
32228;SDS011;18717;48.034;11.186;2023-02-04T05:07:07;18.35;;;8.32;;
32228;SDS011;18717;48.034;11.186;2023-02-04T05:09:34;11.88;;;8.52;;
32228;SDS011;18717;48.034;11.186;2023-02-04T05:12:02;18.20;;;7.85;;
32228;SDS011;18717;48.034;11.186;2023-02-04T05:14:30;8.52;;;7.63;;
32228;SDS011;18717;48.034;11.186;2023-02-04T05:16:59;9.85;;;8.45;;
32228;SDS011;18717;48.034;11.186;2023-02-04T05:19:27;26.55;;;8.15;;
32228;SDS011;18717;48.034;11.186;2023-02-04T05:21:54;12.15;;;8.20;;
32228;SDS011;18717;48.034;11.186;2023-02-04T05:24:22;11.57;;;7.93;;
32228;SDS011;18717;48.034;11.186;2023-02-04T05:26:50;9.52;;;7.30;;
32228;SDS011;18717;48.034;11.186;2023-02-04T05:29:18;18.05;;;8.80;;
32228;SDS011;18717;48.034;11.186;2023-02-04T05:31:45;12.23;;;7.80;;
32228;SDS011;18717;48.034;11.186;2023-02-04T05:34:14;18.90;;;8.52;;
32228;SDS011;18717;48.034;11.186;2023-02-04T05:36:42;17.50;;;8.15;;
32228;SDS011;18717;48.034;11.186;2023-02-04T05:39:09;12.43;;;7.78;;
32228;SDS011;18717;48.034;11.186;2023-02-04T05:41:37;9.32;;;7.30;;
32228;SDS011;18717;48.034;11.186;2023-02-04T05:44:05;20.00;;;8.40;;
32228;SDS011;18717;48.034;11.186;2023-02-04T05:46:32;11.95;;;7.93;;
32228;SDS011;18717;48.034;11.186;2023-02-04T05:49:01;13.15;;;7.93;;
32228;SDS011;18717;48.034;11.186;2023-02-04T05:51:30;14.00;;;9.00;;
32228;SDS011;18717;48.034;11.186;2023-02-04T05:53:58;16.80;;;8.10;;
32228;SDS011;18717;48.034;11.186;2023-02-04T05:56:25;12.82;;;8.40;;
32228;SDS011;18717;48.034;11.186;2023-02-04T05:58:53;13.77;;;8.27;;
32228;SDS011;18717;48.034;11.186;2023-02-04T06:01:20;20.20;;;8.15;;
32228;SDS011;18717;48.034;11.186;2023-02-04T06:03:48;9.75;;;8.18;;
32228;SDS011;18717;48.034;11.186;2023-02-04T06:06:16;11.65;;;7.75;;
32228;SDS011;18717;48.034;11.186;2023-02-04T06:08:45;14.95;;;8.55;;
32228;SDS011;18717;48.034;11.186;2023-02-04T06:11:12;14.27;;;8.10;;
32228;SDS011;18717;48.034;11.186;2023-02-04T06:13:40;12.38;;;8.00;;
32228;SDS011;18717;48.034;11.186;2023-02-04T06:16:08;12.88;;;7.80;;
32228;SDS011;18717;48.034;11.186;2023-02-04T06:18:35;11.60;;;8.32;;
32228;SDS011;18717;48.034;11.186;2023-02-04T06:21:03;14.48;;;8.68;;
32228;SDS011;18717;48.034;11.186;2023-02-04T06:23:31;19.40;;;8.38;;
32228;SDS011;18717;48.034;11.186;2023-02-04T06:26:01;19.52;;;7.95;;
32228;SDS011;18717;48.034;11.186;2023-02-04T06:28:28;10.38;;;7.70;;
32228;SDS011;18717;48.034;11.186;2023-02-04T06:30:56;12.40;;;7.97;;
32228;SDS011;18717;48.034;11.186;2023-02-04T06:33:24;17.50;;;8.73;;
32228;SDS011;18717;48.034;11.186;2023-02-04T06:35:52;18.70;;;8.55;;
32228;SDS011;18717;48.034;11.186;2023-02-04T06:38:19;18.15;;;7.95;;
32228;SDS011;18717;48.034;11.186;2023-02-04T06:40:47;20.73;;;7.55;;
32228;SDS011;18717;48.034;11.186;2023-02-04T06:43:20;24.98;;;8.02;;
32228;SDS011;18717;48.034;11.186;2023-02-04T06:45:50;9.35;;;7.95;;
32228;SDS011;18717;48.034;11.186;2023-02-04T06:48:18;12.07;;;8.05;;
32228;SDS011;18717;48.034;11.186;2023-02-04T06:50:46;13.02;;;7.80;;
32228;SDS011;18717;48.034;11.186;2023-02-04T06:53:14;17.60;;;9.13;;
32228;SDS011;18717;48.034;11.186;2023-02-04T06:55:42;14.02;;;8.73;;
32228;SDS011;18717;48.034;11.186;2023-02-04T06:58:09;15.73;;;8.57;;
32228;SDS011;18717;48.034;11.186;2023-02-04T07:00:38;15.63;;;8.25;;
32228;SDS011;18717;48.034;11.186;2023-02-04T07:03:06;13.77;;;8.10;;
32228;SDS011;18717;48.034;11.186;2023-02-04T07:05:34;14.13;;;8.02;;
32228;SDS011;18717;48.034;11.186;2023-02-04T07:08:01;14.57;;;8.00;;
32228;SDS011;18717;48.034;11.186;2023-02-04T07:10:29;25.48;;;8.77;;
32228;SDS011;18717;48.034;11.186;2023-02-04T07:12:58;16.45;;;8.25;;
32228;SDS011;18717;48.034;11.186;2023-02-04T07:15:28;14.95;;;7.65;;
32228;SDS011;18717;48.034;11.186;2023-02-04T07:17:58;20.90;;;8.15;;
32228;SDS011;18717;48.034;11.186;2023-02-04T07:20:25;10.15;;;7.13;;
32228;SDS011;18717;48.034;11.186;2023-02-04T07:22:53;13.07;;;7.90;;
32228;SDS011;18717;48.034;11.186;2023-02-04T07:25:21;17.17;;;9.52;;
32228;SDS011;18717;48.034;11.186;2023-02-04T07:27:48;13.50;;;7.88;;
32228;SDS011;18717;48.034;11.186;2023-02-04T07:30:16;15.38;;;8.02;;
32228;SDS011;18717;48.034;11.186;2023-02-04T07:32:44;15.75;;;8.68;;
32228;SDS011;18717;48.034;11.186;2023-02-04T07:35:13;16.58;;;8.90;;
32228;SDS011;18717;48.034;11.186;2023-02-04T07:37:41;10.27;;;7.93;;
32228;SDS011;18717;48.034;11.186;2023-02-04T07:40:10;17.83;;;8.13;;
32228;SDS011;18717;48.034;11.186;2023-02-04T07:42:40;8.85;;;7.65;;
32228;SDS011;18717;48.034;11.186;2023-02-04T07:45:08;15.93;;;8.65;;
32228;SDS011;18717;48.034;11.186;2023-02-04T07:47:36;16.90;;;8.73;;
32228;SDS011;18717;48.034;11.186;2023-02-04T07:50:04;15.07;;;8.60;;
32228;SDS011;18717;48.034;11.186;2023-02-04T07:52:33;14.13;;;9.90;;
32228;SDS011;18717;48.034;11.186;2023-02-04T07:55:01;11.85;;;8.10;;
32228;SDS011;18717;48.034;11.186;2023-02-04T07:57:29;13.77;;;8.57;;
32228;SDS011;18717;48.034;11.186;2023-02-04T07:59:57;14.30;;;8.15;;
32228;SDS011;18717;48.034;11.186;2023-02-04T08:02:24;10.48;;;8.35;;
32228;SDS011;18717;48.034;11.186;2023-02-04T08:04:52;12.80;;;7.88;;
32228;SDS011;18717;48.034;11.186;2023-02-04T08:07:20;13.60;;;8.25;;
32228;SDS011;18717;48.034;11.186;2023-02-04T08:09:49;16.52;;;9.05;;
32228;SDS011;18717;48.034;11.186;2023-02-04T08:12:17;15.30;;;8.20;;
32228;SDS011;18717;48.034;11.186;2023-02-04T08:14:44;16.27;;;7.90;;
32228;SDS011;18717;48.034;11.186;2023-02-04T08:17:12;15.73;;;8.27;;
32228;SDS011;18717;48.034;11.186;2023-02-04T08:19:40;28.92;;;10.20;;
32228;SDS011;18717;48.034;11.186;2023-02-04T08:22:07;16.83;;;8.43;;
32228;SDS011;18717;48.034;11.186;2023-02-04T08:24:36;16.02;;;7.78;;
32228;SDS011;18717;48.034;11.186;2023-02-04T08:27:06;23.45;;;9.43;;
32228;SDS011;18717;48.034;11.186;2023-02-04T08:29:34;13.77;;;7.18;;
32228;SDS011;18717;48.034;11.186;2023-02-04T08:32:01;22.90;;;8.73;;
32228;SDS011;18717;48.034;11.186;2023-02-04T08:34:29;11.30;;;7.80;;
32228;SDS011;18717;48.034;11.186;2023-02-04T08:36:57;10.90;;;8.40;;
32228;SDS011;18717;48.034;11.186;2023-02-04T08:39:25;13.15;;;8.50;;
32228;SDS011;18717;48.034;11.186;2023-02-04T08:41:52;10.73;;;8.05;;
32228;SDS011;18717;48.034;11.186;2023-02-04T08:44:21;13.75;;;8.90;;
32228;SDS011;18717;48.034;11.186;2023-02-04T08:46:49;12.85;;;8.50;;
32228;SDS011;18717;48.034;11.186;2023-02-04T08:49:17;12.77;;;9.00;;
32228;SDS011;18717;48.034;11.186;2023-02-04T08:51:45;17.17;;;8.02;;
32228;SDS011;18717;48.034;11.186;2023-02-04T08:54:12;13.77;;;8.25;;
32228;SDS011;18717;48.034;11.186;2023-02-04T08:56:40;12.98;;;7.97;;
32228;SDS011;18717;48.034;11.186;2023-02-04T08:59:07;13.05;;;8.25;;
32228;SDS011;18717;48.034;11.186;2023-02-04T09:01:36;12.38;;;8.65;;
32228;SDS011;18717;48.034;11.186;2023-02-04T09:04:04;13.88;;;7.90;;
32228;SDS011;18717;48.034;11.186;2023-02-04T09:06:32;9.50;;;8.60;;
32228;SDS011;18717;48.034;11.186;2023-02-04T09:09:00;17.92;;;8.02;;
32228;SDS011;18717;48.034;11.186;2023-02-04T09:11:28;9.70;;;7.57;;
32228;SDS011;18717;48.034;11.186;2023-02-04T09:13:55;10.07;;;7.65;;
32228;SDS011;18717;48.034;11.186;2023-02-04T09:16:23;16.48;;;8.55;;
32228;SDS011;18717;48.034;11.186;2023-02-04T09:18:52;12.95;;;8.13;;
32228;SDS011;18717;48.034;11.186;2023-02-04T09:21:20;10.27;;;8.30;;
32228;SDS011;18717;48.034;11.186;2023-02-04T09:23:48;14.70;;;7.80;;
32228;SDS011;18717;48.034;11.186;2023-02-04T09:26:15;16.20;;;7.68;;
32228;SDS011;18717;48.034;11.186;2023-02-04T09:28:43;13.38;;;7.55;;
32228;SDS011;18717;48.034;11.186;2023-02-04T09:31:12;8.57;;;7.60;;
32228;SDS011;18717;48.034;11.186;2023-02-04T09:33:40;14.63;;;7.53;;
32228;SDS011;18717;48.034;11.186;2023-02-04T09:36:09;9.48;;;7.78;;
32228;SDS011;18717;48.034;11.186;2023-02-04T09:38:37;14.90;;;7.70;;
32228;SDS011;18717;48.034;11.186;2023-02-04T09:41:05;8.65;;;6.93;;
32228;SDS011;18717;48.034;11.186;2023-02-04T09:43:35;14.88;;;7.90;;
32228;SDS011;18717;48.034;11.186;2023-02-04T09:46:06;12.77;;;7.60;;
32228;SDS011;18717;48.034;11.186;2023-02-04T09:48:34;9.68;;;7.50;;
32228;SDS011;18717;48.034;11.186;2023-02-04T09:51:02;19.33;;;7.93;;
32228;SDS011;18717;48.034;11.186;2023-02-04T09:53:33;8.90;;;7.15;;
32228;SDS011;18717;48.034;11.186;2023-02-04T09:56:01;11.15;;;7.50;;
32228;SDS011;18717;48.034;11.186;2023-02-04T09:58:30;15.68;;;7.47;;
32228;SDS011;18717;48.034;11.186;2023-02-04T10:01:00;12.20;;;7.70;;
32228;SDS011;18717;48.034;11.186;2023-02-04T10:03:32;9.73;;;7.35;;
32228;SDS011;18717;48.034;11.186;2023-02-04T10:06:00;10.77;;;8.50;;
32228;SDS011;18717;48.034;11.186;2023-02-04T10:08:28;12.50;;;8.13;;
32228;SDS011;18717;48.034;11.186;2023-02-04T10:10:59;22.75;;;7.53;;
32228;SDS011;18717;48.034;11.186;2023-02-04T10:13:29;12.20;;;8.35;;
32228;SDS011;18717;48.034;11.186;2023-02-04T10:15:58;13.50;;;8.30;;
32228;SDS011;18717;48.034;11.186;2023-02-04T10:18:27;14.45;;;8.50;;
32228;SDS011;18717;48.034;11.186;2023-02-04T10:20:56;10.85;;;7.45;;
32228;SDS011;18717;48.034;11.186;2023-02-04T10:23:30;13.07;;;7.78;;
32228;SDS011;18717;48.034;11.186;2023-02-04T10:26:00;9.13;;;7.25;;
32228;SDS011;18717;48.034;11.186;2023-02-04T10:28:31;13.38;;;8.20;;
32228;SDS011;18717;48.034;11.186;2023-02-04T10:31:00;11.63;;;8.00;;
32228;SDS011;18717;48.034;11.186;2023-02-04T10:33:27;12.57;;;7.30;;
32228;SDS011;18717;48.034;11.186;2023-02-04T10:35:56;15.60;;;7.75;;
32228;SDS011;18717;48.034;11.186;2023-02-04T10:38:24;9.52;;;7.40;;
32228;SDS011;18717;48.034;11.186;2023-02-04T10:41:00;13.95;;;7.80;;
32228;SDS011;18717;48.034;11.186;2023-02-04T10:43:28;9.57;;;8.60;;
32228;SDS011;18717;48.034;11.186;2023-02-04T10:45:57;10.35;;;7.55;;
32228;SDS011;18717;48.034;11.186;2023-02-04T10:48:26;21.52;;;9.30;;
32228;SDS011;18717;48.034;11.186;2023-02-04T10:50:55;8.63;;;7.85;;
32228;SDS011;18717;48.034;11.186;2023-02-04T10:53:24;16.20;;;8.43;;
32228;SDS011;18717;48.034;11.186;2023-02-04T10:56:13;15.25;;;7.97;;
32228;SDS011;18717;48.034;11.186;2023-02-04T10:58:43;12.82;;;7.95;;
32228;SDS011;18717;48.034;11.186;2023-02-04T11:01:11;9.63;;;7.65;;
32228;SDS011;18717;48.034;11.186;2023-02-04T11:03:39;12.63;;;7.72;;
32228;SDS011;18717;48.034;11.186;2023-02-04T11:06:09;13.32;;;7.43;;
32228;SDS011;18717;48.034;11.186;2023-02-04T11:08:38;16.73;;;8.02;;
32228;SDS011;18717;48.034;11.186;2023-02-04T11:11:07;13.63;;;8.20;;
32228;SDS011;18717;48.034;11.186;2023-02-04T11:13:40;16.58;;;7.93;;
32228;SDS011;18717;48.034;11.186;2023-02-04T11:16:10;12.45;;;7.70;;
32228;SDS011;18717;48.034;11.186;2023-02-04T11:18:43;11.27;;;7.15;;
32228;SDS011;18717;48.034;11.186;2023-02-04T11:21:13;13.57;;;8.48;;
32228;SDS011;18717;48.034;11.186;2023-02-04T11:23:44;13.23;;;8.05;;
32228;SDS011;18717;48.034;11.186;2023-02-04T11:26:13;11.60;;;8.30;;
32228;SDS011;18717;48.034;11.186;2023-02-04T11:28:48;10.68;;;7.95;;
32228;SDS011;18717;48.034;11.186;2023-02-04T11:31:28;13.73;;;8.43;;
32228;SDS011;18717;48.034;11.186;2023-02-04T11:34:10;9.55;;;7.63;;
32228;SDS011;18717;48.034;11.186;2023-02-04T11:36:55;10.80;;;8.25;;
32228;SDS011;18717;48.034;11.186;2023-02-04T11:39:31;11.98;;;8.18;;
32228;SDS011;18717;48.034;11.186;2023-02-04T11:42:00;11.05;;;7.35;;
32228;SDS011;18717;48.034;11.186;2023-02-04T11:44:30;11.43;;;7.55;;
32228;SDS011;18717;48.034;11.186;2023-02-04T11:46:58;22.20;;;8.25;;
32228;SDS011;18717;48.034;11.186;2023-02-04T11:49:28;12.20;;;8.18;;
32228;SDS011;18717;48.034;11.186;2023-02-04T11:52:03;11.45;;;8.30;;
32228;SDS011;18717;48.034;11.186;2023-02-04T11:54:34;14.73;;;8.77;;
32228;SDS011;18717;48.034;11.186;2023-02-04T11:57:02;11.57;;;7.97;;
32228;SDS011;18717;48.034;11.186;2023-02-04T11:59:32;13.13;;;7.93;;
32228;SDS011;18717;48.034;11.186;2023-02-04T12:02:02;11.88;;;7.72;;
32228;SDS011;18717;48.034;11.186;2023-02-04T12:04:31;14.20;;;8.43;;
32228;SDS011;18717;48.034;11.186;2023-02-04T12:06:59;7.70;;;7.00;;
32228;SDS011;18717;48.034;11.186;2023-02-04T12:09:29;14.65;;;7.72;;
32228;SDS011;18717;48.034;11.186;2023-02-04T12:11:58;7.88;;;7.05;;
32228;SDS011;18717;48.034;11.186;2023-02-04T12:14:27;12.68;;;9.50;;
32228;SDS011;18717;48.034;11.186;2023-02-04T12:16:58;8.48;;;7.50;;
32228;SDS011;18717;48.034;11.186;2023-02-04T12:19:26;14.68;;;8.40;;
32228;SDS011;18717;48.034;11.186;2023-02-04T12:21:54;9.68;;;8.50;;
32228;SDS011;18717;48.034;11.186;2023-02-04T12:24:22;16.38;;;8.57;;
32228;SDS011;18717;48.034;11.186;2023-02-04T12:26:49;18.15;;;8.85;;
32228;SDS011;18717;48.034;11.186;2023-02-04T12:29:17;16.63;;;7.47;;
32228;SDS011;18717;48.034;11.186;2023-02-04T12:31:45;13.95;;;7.45;;
32228;SDS011;18717;48.034;11.186;2023-02-04T12:34:14;14.45;;;7.65;;
32228;SDS011;18717;48.034;11.186;2023-02-04T12:36:42;8.65;;;7.13;;
32228;SDS011;18717;48.034;11.186;2023-02-04T12:39:10;11.23;;;7.57;;
32228;SDS011;18717;48.034;11.186;2023-02-04T12:41:38;14.32;;;6.80;;
32228;SDS011;18717;48.034;11.186;2023-02-04T12:44:05;10.23;;;7.20;;
32228;SDS011;18717;48.034;11.186;2023-02-04T12:46:33;11.35;;;7.15;;
32228;SDS011;18717;48.034;11.186;2023-02-04T12:49:01;11.90;;;7.10;;
32228;SDS011;18717;48.034;11.186;2023-02-04T12:51:30;10.48;;;7.15;;
32228;SDS011;18717;48.034;11.186;2023-02-04T12:53:58;7.80;;;6.63;;
32228;SDS011;18717;48.034;11.186;2023-02-04T12:56:26;8.57;;;7.55;;
32228;SDS011;18717;48.034;11.186;2023-02-04T12:58:53;8.80;;;6.82;;
32228;SDS011;18717;48.034;11.186;2023-02-04T13:01:21;10.52;;;7.75;;
32228;SDS011;18717;48.034;11.186;2023-02-04T13:03:48;9.50;;;7.78;;
32228;SDS011;18717;48.034;11.186;2023-02-04T13:06:16;9.80;;;7.63;;
32228;SDS011;18717;48.034;11.186;2023-02-04T13:08:45;10.50;;;7.80;;
32228;SDS011;18717;48.034;11.186;2023-02-04T13:11:13;13.52;;;7.05;;
32228;SDS011;18717;48.034;11.186;2023-02-04T13:13:40;9.93;;;8.25;;
32228;SDS011;18717;48.034;11.186;2023-02-04T13:16:09;8.20;;;6.88;;
32228;SDS011;18717;48.034;11.186;2023-02-04T13:19:25;13.38;;;8.98;;
32228;SDS011;18717;48.034;11.186;2023-02-04T13:21:52;12.20;;;8.80;;
32228;SDS011;18717;48.034;11.186;2023-02-04T13:24:21;12.20;;;7.93;;
32228;SDS011;18717;48.034;11.186;2023-02-04T13:26:49;12.35;;;7.82;;
32228;SDS011;18717;48.034;11.186;2023-02-04T13:29:17;14.30;;;7.82;;
32228;SDS011;18717;48.034;11.186;2023-02-04T13:31:45;11.15;;;7.93;;
32228;SDS011;18717;48.034;11.186;2023-02-04T13:34:12;14.57;;;8.10;;
32228;SDS011;18717;48.034;11.186;2023-02-04T13:36:40;11.07;;;7.90;;
32228;SDS011;18717;48.034;11.186;2023-02-04T13:39:09;9.15;;;7.85;;
32228;SDS011;18717;48.034;11.186;2023-02-04T13:41:38;9.48;;;7.07;;
32228;SDS011;18717;48.034;11.186;2023-02-04T13:44:06;8.48;;;7.63;;
32228;SDS011;18717;48.034;11.186;2023-02-04T13:46:33;10.48;;;7.45;;
32228;SDS011;18717;48.034;11.186;2023-02-04T13:49:01;12.07;;;7.78;;
32228;SDS011;18717;48.034;11.186;2023-02-04T13:51:29;10.43;;;7.85;;
32228;SDS011;18717;48.034;11.186;2023-02-04T13:53:57;8.45;;;7.38;;
32228;SDS011;18717;48.034;11.186;2023-02-04T13:56:25;9.35;;;7.25;;
32228;SDS011;18717;48.034;11.186;2023-02-04T13:58:54;14.70;;;8.25;;
32228;SDS011;18717;48.034;11.186;2023-02-04T14:01:22;8.63;;;7.72;;
32228;SDS011;18717;48.034;11.186;2023-02-04T14:03:50;7.90;;;7.20;;
32228;SDS011;18717;48.034;11.186;2023-02-04T14:06:17;11.95;;;8.52;;
32228;SDS011;18717;48.034;11.186;2023-02-04T14:08:47;9.73;;;7.07;;
32228;SDS011;18717;48.034;11.186;2023-02-04T14:11:14;8.60;;;7.45;;
32228;SDS011;18717;48.034;11.186;2023-02-04T14:13:42;8.20;;;7.40;;
32228;SDS011;18717;48.034;11.186;2023-02-04T14:16:11;7.70;;;6.95;;
32228;SDS011;18717;48.034;11.186;2023-02-04T14:18:39;7.55;;;6.95;;
32228;SDS011;18717;48.034;11.186;2023-02-04T14:21:06;6.82;;;6.32;;
32228;SDS011;18717;48.034;11.186;2023-02-04T14:23:34;6.95;;;6.35;;
32228;SDS011;18717;48.034;11.186;2023-02-04T14:26:02;7.68;;;7.03;;
32228;SDS011;18717;48.034;11.186;2023-02-04T14:28:29;7.50;;;6.60;;
32228;SDS011;18717;48.034;11.186;2023-02-04T14:30:57;7.50;;;6.80;;
32228;SDS011;18717;48.034;11.186;2023-02-04T14:33:26;7.45;;;6.70;;
32228;SDS011;18717;48.034;11.186;2023-02-04T14:35:54;10.23;;;7.68;;